createdAt,value
2022-11-27T00:02:07.869Z,102138.53
2022-11-27T00:07:09.724Z,102123.47
2022-11-27T00:12:12.928Z,102128.53
2022-11-27T00:17:14.784Z,102117.28
2022-11-27T00:22:16.621Z,102115.47
2022-11-27T00:27:19.786Z,102117.91
2022-11-27T00:32:21.575Z,102107.34
2022-11-27T00:37:23.326Z,102106.47
2022-11-27T00:42:26.606Z,102109.81
2022-11-27T00:47:28.412Z,102114.06
2022-11-27T00:52:30.190Z,102112.22
2022-11-27T00:57:33.410Z,102110.34
2022-11-27T01:02:35.231Z,102110.19
2022-11-27T01:07:37.172Z,102111.75
2022-11-27T01:12:40.338Z,102109.13
2022-11-27T01:17:42.133Z,102096.31
2022-11-27T01:22:43.881Z,102098.09
2022-11-27T01:27:47.221Z,102099.06
2022-11-27T01:32:49.042Z,102097.97
2022-11-27T01:37:50.872Z,102095.22
2022-11-27T01:42:54.395Z,102091.25
2022-11-27T01:47:57.722Z,102089.44
2022-11-27T01:53:01.312Z,102092.88
2022-11-27T01:58:08.273Z,102079.38
2022-11-27T02:03:10.292Z,102060.69
2022-11-27T02:08:12.995Z,102058.66
2022-11-27T02:13:18.895Z,102055.09
2022-11-27T02:18:23.306Z,102056.84
2022-11-27T02:23:58.262Z,102053.13
2022-11-27T02:29:03.570Z,102057.50
2022-11-27T02:34:16.011Z,102048.56
2022-11-27T02:39:19.494Z,102047.16
2022-11-27T02:44:24.392Z,102044.81
2022-11-27T02:49:26.262Z,102040.72
2022-11-27T02:54:28.762Z,102024.66
2022-11-27T02:59:32.083Z,102024.09
2022-11-27T03:04:36.648Z,102016.97
2022-11-27T03:09:39.651Z,102009.81
2022-11-27T03:14:42.940Z,102005.19
2022-11-27T03:19:48.655Z,102008.38
2022-11-27T03:24:50.579Z,102006.25
2022-11-27T03:29:54.776Z,102012.25
2022-11-27T03:34:56.547Z,102005.03
2022-11-27T03:39:58.370Z,102012.38
2022-11-27T03:45:05.817Z,102012.56
2022-11-27T03:50:15.779Z,102006.44
2022-11-27T03:55:21.019Z,102002.78
2022-11-27T04:00:24.169Z,101985.38
2022-11-27T04:05:25.945Z,101985.72
2022-11-27T04:10:27.769Z,101984.81
2022-11-27T04:15:30.965Z,101972.13
2022-11-27T04:20:32.733Z,101970.25
2022-11-27T04:25:34.709Z,101984.88
2022-11-27T04:30:37.882Z,101994.25
2022-11-27T04:35:39.725Z,102008.38
2022-11-27T04:40:41.506Z,102014.94
2022-11-27T04:45:44.557Z,102001.72
2022-11-27T04:50:46.403Z,101997.34
2022-11-27T04:55:48.250Z,101997.47
2022-11-27T05:00:51.528Z,101991.88
2022-11-27T05:05:56.729Z,101992.78
2022-11-27T05:11:00.466Z,101989.41
2022-11-27T05:16:04.001Z,101977.44
2022-11-27T05:21:06.966Z,101970.97
2022-11-27T05:26:08.798Z,101959.88
2022-11-27T05:31:12.096Z,101950.84
2022-11-27T05:36:13.854Z,101946.84
2022-11-27T05:41:15.698Z,101946.25
2022-11-27T05:46:19.821Z,101935.06
2022-11-27T05:51:21.648Z,101932.53
2022-11-27T05:56:24.055Z,101930.25
2022-11-27T06:01:27.227Z,101917.53
2022-11-27T06:06:29.005Z,101916.00
2022-11-27T06:11:30.808Z,101923.16
2022-11-27T06:16:34.103Z,101913.63
2022-11-27T06:21:36.014Z,101916.13
2022-11-27T06:26:37.843Z,101912.75
2022-11-27T06:31:41.102Z,101899.66
2022-11-27T06:36:42.944Z,101897.69
2022-11-27T06:41:44.766Z,101881.97
2022-11-27T06:46:47.990Z,101888.31
2022-11-27T06:51:50.646Z,101883.16
2022-11-27T06:56:52.541Z,101884.28
2022-11-27T07:01:56.214Z,101876.88
2022-11-27T07:06:58.863Z,101877.28
2022-11-27T07:12:00.655Z,101885.34
2022-11-27T07:17:03.821Z,101872.09
2022-11-27T07:22:05.621Z,101868.66
2022-11-27T07:27:08.603Z,101872.94
2022-11-27T07:32:11.802Z,101886.22
2022-11-27T07:37:13.586Z,101869.06
2022-11-27T07:42:37.894Z,101860.44
2022-11-27T07:47:38.569Z,101850.19
2022-11-27T07:52:42.233Z,101854.75
2022-11-27T07:57:44.445Z,101850.81
2022-11-27T08:02:47.578Z,101840.84
2022-11-27T08:07:49.401Z,101844.38
2022-11-27T08:12:51.226Z,101834.44
2022-11-27T08:17:54.337Z,101842.63
2022-11-27T08:23:01.198Z,101842.56
2022-11-27T08:28:04.917Z,101856.50
2022-11-27T08:33:08.052Z,101853.28
2022-11-27T08:38:09.938Z,101844.97
2022-11-27T08:43:11.727Z,101853.75
2022-11-27T08:48:14.777Z,101846.22
2022-11-27T08:53:16.654Z,101845.88
2022-11-27T08:58:18.536Z,101843.47
2022-11-27T09:03:21.675Z,101834.00
2022-11-27T09:08:23.417Z,101825.34
2022-11-27T09:13:25.256Z,101831.56
2022-11-27T09:18:28.456Z,101821.91
2022-11-27T09:23:30.233Z,101819.28
2022-11-27T09:28:32.068Z,101817.47
2022-11-27T09:33:36.078Z,101823.50
2022-11-27T09:38:38.236Z,101816.59
2022-11-27T09:43:45.181Z,101792.03
2022-11-27T09:48:49.268Z,101780.19
2022-11-27T09:53:52.706Z,101775.84
2022-11-27T09:58:56.586Z,101764.63
2022-11-27T10:04:00.852Z,101767.44
2022-11-27T10:09:09.115Z,101775.34
2022-11-27T10:14:22.196Z,101747.25
2022-11-27T10:19:31.082Z,101734.94
2022-11-27T10:24:37.483Z,101733.97
2022-11-27T10:29:41.518Z,101742.50
2022-11-27T10:34:48.562Z,101724.28
2022-11-27T10:39:52.732Z,101714.66
2022-11-27T10:44:57.907Z,101721.66
2022-11-27T10:50:16.500Z,101721.59
2022-11-27T10:55:21.626Z,101722.34
2022-11-27T11:00:24.000Z,101709.00
2022-11-27T11:10:53.724Z,101698.22
2022-11-27T11:15:57.950Z,101690.19
2022-11-27T11:21:02.302Z,101687.56
2022-11-27T11:26:07.314Z,101680.47
2022-11-27T11:31:09.856Z,101681.44
2022-11-27T11:36:13.236Z,101680.47
2022-11-27T11:41:17.957Z,101688.41
2022-11-27T11:46:22.752Z,101678.94
2022-11-27T11:51:34.996Z,101674.50
2022-11-27T11:56:38.616Z,101672.00
2022-11-27T12:01:54.302Z,101660.91
2022-11-27T12:07:00.257Z,101648.78
2022-11-27T12:12:04.925Z,101636.53
2022-11-27T12:17:17.122Z,101635.72
2022-11-27T12:22:26.856Z,101625.22
2022-11-27T12:27:46.100Z,101607.66
2022-11-27T12:33:26.964Z,101591.88
2022-11-27T12:38:38.673Z,101592.78
2022-11-27T12:43:42.045Z,101578.72
2022-11-27T12:48:46.512Z,101573.44
2022-11-27T12:53:52.135Z,101569.91
2022-11-27T12:58:56.360Z,101573.47
2022-11-27T13:04:03.681Z,101563.78
2022-11-27T13:09:08.098Z,101551.50
2022-11-27T13:14:11.737Z,101550.66
2022-11-27T13:19:16.654Z,101531.34
2022-11-27T13:24:19.831Z,101523.44
2022-11-27T13:29:29.755Z,101513.81
2022-11-27T13:34:31.811Z,101507.69
2022-11-27T13:39:36.869Z,101505.03
2022-11-27T13:44:41.655Z,101492.75
2022-11-27T13:49:48.352Z,101489.25
2022-11-27T13:54:55.416Z,101496.28
2022-11-27T13:59:58.616Z,101482.97
2022-11-27T14:05:00.400Z,101482.09
2022-11-27T14:10:09.142Z,101480.34
2022-11-27T14:15:20.508Z,101465.47
2022-11-27T14:20:28.019Z,101469.78
2022-11-27T14:25:31.739Z,101463.66
2022-11-27T14:30:35.022Z,101457.53
2022-11-27T14:35:36.792Z,101451.44
2022-11-27T14:40:39.958Z,101445.41
2022-11-27T14:45:43.944Z,101442.81
2022-11-27T14:50:45.804Z,101438.41
2022-11-27T14:55:49.628Z,101433.06
2022-11-27T15:00:52.465Z,101420.78
2022-11-27T15:05:56.230Z,101409.38
2022-11-27T15:10:59.512Z,101402.38
2022-11-27T15:16:03.480Z,101407.63
2022-11-27T15:21:09.816Z,101401.28
2022-11-27T15:26:17.960Z,101395.19
2022-11-27T15:31:30.810Z,101389.94
2022-11-27T15:36:39.700Z,101377.69
2022-11-27T15:41:49.888Z,101373.28
2022-11-27T15:46:52.305Z,101375.06
2022-11-27T15:51:54.874Z,101364.63
2022-11-27T15:56:58.070Z,101361.00
2022-11-27T16:02:00.020Z,101356.59
2022-11-27T16:07:01.931Z,101353.06
2022-11-27T16:12:05.722Z,101353.16
2022-11-27T16:17:07.546Z,101337.47
2022-11-27T16:22:09.327Z,101344.44
2022-11-27T16:27:12.458Z,101339.19
2022-11-27T16:32:14.256Z,101326.94
2022-11-27T16:37:18.549Z,101327.88
2022-11-27T16:42:21.960Z,101323.50
2022-11-27T16:47:23.873Z,101320.91
2022-11-27T16:52:25.634Z,101312.19
2022-11-27T16:57:28.868Z,101309.56
2022-11-27T17:02:31.040Z,101306.94
2022-11-27T17:07:33.023Z,101304.31
2022-11-27T17:12:36.259Z,101300.78
2022-11-27T17:17:40.214Z,101289.44
2022-11-27T17:29:43.116Z,101272.84
2022-11-27T17:34:46.507Z,101269.31
2022-11-27T17:39:48.469Z,101266.66
2022-11-27T17:44:50.634Z,101259.63
2022-11-27T17:49:53.787Z,101254.38
2022-11-27T17:54:56.878Z,101259.66
2022-11-27T17:59:58.603Z,101250.94
2022-11-27T18:05:02.043Z,101248.31
2022-11-27T18:10:05.254Z,101234.25
2022-11-27T18:15:09.488Z,101227.28
2022-11-27T18:20:13.190Z,101220.25
2022-11-27T18:25:15.000Z,101211.50
2022-11-27T18:30:16.994Z,101207.16
2022-11-27T18:35:23.242Z,101201.91
2022-11-27T18:40:25.007Z,101187.03
2022-11-27T18:45:33.320Z,101190.50
2022-11-27T18:50:39.578Z,101181.75
2022-11-27T18:55:41.630Z,101172.00
2022-11-27T19:00:44.648Z,101170.19
2022-11-27T19:05:48.773Z,101172.06
2022-11-27T19:10:50.736Z,101158.06
2022-11-27T19:15:52.600Z,101156.22
2022-11-27T19:20:55.918Z,101144.97
2022-11-27T19:26:04.325Z,101143.22
2022-11-27T19:31:07.303Z,101133.69
2022-11-27T19:36:11.443Z,101130.16
2022-11-27T19:41:14.008Z,101120.59
2022-11-27T19:46:16.250Z,101117.94
2022-11-27T19:51:19.422Z,101110.88
2022-11-27T19:56:21.507Z,101108.31
2022-11-27T20:01:24.399Z,101096.97
2022-11-27T20:06:29.274Z,101093.47
2022-11-27T20:11:34.814Z,101080.38
2022-11-27T20:16:38.717Z,101066.38
2022-11-27T20:21:42.297Z,101062.00
2022-11-27T20:26:44.087Z,101056.75
2022-11-27T20:31:45.959Z,101073.34
2022-11-27T20:36:49.075Z,101078.59
2022-11-27T20:41:51.300Z,101086.44
2022-11-27T20:46:52.994Z,101070.69
2022-11-27T20:51:57.735Z,101072.47
2022-11-27T20:56:59.523Z,101059.34
2022-11-27T21:02:02.733Z,101057.59
2022-11-27T21:07:06.330Z,101053.25
2022-11-27T21:12:08.131Z,101052.34
2022-11-27T21:17:09.988Z,101035.72
2022-11-27T21:22:13.172Z,101037.44
2022-11-27T21:27:15.138Z,101043.56
2022-11-27T21:32:22.597Z,101041.88
2022-11-27T21:37:26.115Z,101031.38
2022-11-27T21:42:29.292Z,101033.13
2022-11-27T21:47:31.125Z,101013.94
2022-11-27T21:52:35.546Z,101010.41
2022-11-27T21:57:37.303Z,101013.94
2022-11-27T22:02:39.222Z,101015.66
2022-11-27T22:07:42.730Z,101007.81
2022-11-27T22:12:44.468Z,101008.66
2022-11-27T22:17:46.294Z,100999.06
2022-11-27T22:22:49.597Z,100997.31
2022-11-27T22:27:51.398Z,100977.19
2022-11-27T22:32:53.248Z,100943.13
2022-11-27T22:37:56.496Z,100994.66
2022-11-27T22:42:58.410Z,100999.03
2022-11-27T22:48:00.180Z,100982.41
2022-11-27T22:53:03.313Z,100986.78
2022-11-27T22:58:05.134Z,100966.72
2022-11-27T23:03:07.685Z,100965.81
2022-11-27T23:08:10.956Z,100959.72
2022-11-27T23:13:13.522Z,100953.59
2022-11-27T23:18:15.363Z,100948.34
2022-11-27T23:23:18.430Z,100952.72
2022-11-27T23:28:20.195Z,100918.66
2022-11-27T23:33:21.939Z,100936.13
2022-11-27T23:38:25.060Z,100922.16
2022-11-27T23:43:26.778Z,100919.50
2022-11-27T23:48:28.571Z,100927.38
2022-11-27T23:53:31.647Z,100920.38
2022-11-27T23:58:33.479Z,100920.41
